Observation data for Andrews on 02/14/2020      Previous  Date  Next       Current Mesonet Observations  Soil Data  Daily Summary Page  Observations in Plain Language
KANS 140600Z 09011KT M01/M02 A3026 RMK A01 T10101019  RH  094%=      5-min Rain = 0
KANS 140605Z 09010KT M01/M02 A3026 RMK A01 T10101019  RH  095%=      5-min Rain = 0
KANS 140610Z 10011KT M01/M02 A3026 RMK A01 T10101019  RH  095%=      5-min Rain = 0
KANS 140615Z 10010G15KT M01/M02 A3026 RMK A01 T10101019  RH  095%=      5-min Rain = 0
KANS 140620Z 10010KT M01/M02 A3026 RMK A01 T10111019  RH  095%=      5-min Rain = 0
KANS 140625Z 10011KT M01/M02 A3026 RMK A01 T10111019  RH  095%=      5-min Rain = 0
KANS 140630Z 10009KT M01/M02 A3026 RMK A01 T10121020  RH  095%=      5-min Rain = 0
KANS 140635Z 11011KT M01/M02 A3026 RMK A01 T10111019  RH  095%=      5-min Rain = 0
KANS 140640Z 10011KT M01/M02 A3027 RMK A01 T10121019  RH  095%=      5-min Rain = 0
KANS 140645Z 11009KT M01/M02 A3026 RMK A01 T10111019  RH  096%=      5-min Rain = 0
KANS 140650Z 11011KT M01/M02 A3027 RMK A01 T10111018  RH  096%=      5-min Rain = 0
KANS 140655Z 11010KT M01/M02 A3027 RMK A01 T10111018  RH  096%=      5-min Rain = 0
KANS 140700Z 11010G16KT M01/M02 A3027 RMK A01 T10111018  RH  096%=      5-min Rain = 0
KANS 140705Z 11011G16KT M01/M02 A3027 RMK A01 T10111018  RH  096%=      5-min Rain = 0
KANS 140710Z 11009KT M01/M02 A3027 RMK A01 T10111017  RH  096%=      5-min Rain = 0
KANS 140715Z 10010KT M01/M02 A3027 RMK A01 T10111017  RH  096%=      5-min Rain = 0
KANS 140720Z 11009KT M01/M02 A3027 RMK A01 T10111017  RH  097%=      5-min Rain = 0
KANS 140725Z 11010KT M01/M02 A3027 RMK A01 T10111017  RH  097%=      5-min Rain = 0
KANS 140730Z 11008G13KT M01/M02 A3027 RMK A01 T10111016  RH  097%=      5-min Rain = 0
KANS 140735Z 11010KT M01/M02 A3027 RMK A01 T10111016  RH  097%=      5-min Rain = 0
KANS 140740Z 10009G14KT M01/M02 A3027 RMK A01 T10111016  RH  097%=      5-min Rain = 0
KANS 140745Z 11010KT M01/M02 A3027 RMK A01 T10111016  RH  097%=      5-min Rain = 0
KANS 140750Z 11010KT M01/M02 A3027 RMK A01 T10111016  RH  097%=      5-min Rain = 0
KANS 140755Z 11014KT M01/M02 A3027 RMK A01 T10111016  RH  098%=      5-min Rain = 0
KANS 140800Z 12010G16KT M01/M02 A3027 RMK A01 T10111016  RH  098%=      5-min Rain = 0
KANS 140805Z 11011KT M01/M02 A3027 RMK A01 T10111015  RH  098%=      5-min Rain = 0
KANS 140810Z 11011G17KT M01/M02 A3027 RMK A01 T10111015  RH  098%=      5-min Rain = 0
KANS 140815Z 11009KT M01/M02 A3027 RMK A01 T10101015  RH  098%=      5-min Rain = 0
KANS 140820Z 10009KT M01/M02 A3027 RMK A01 T10101015  RH  098%=      5-min Rain = 0
KANS 140825Z 11009KT M01/M01 A3027 RMK A01 T10101014  RH  098%=      5-min Rain = 0
KANS 140830Z 11010KT M01/M01 A3027 RMK A01 T10101014  RH  098%=      5-min Rain = 0
KANS 140835Z 11009KT M01/M01 A3027 RMK A01 T10101014  RH  098%=      5-min Rain = 0
KANS 140840Z 11010KT M01/M01 A3027 RMK A01 T10101014  RH  098%=      5-min Rain = 0
KANS 140845Z 11010KT M01/M01 A3027 RMK A01 T10091014  RH  098%=      5-min Rain = 0
KANS 140850Z 11009KT M01/M01 A3027 RMK A01 T10101014  RH  098%=      5-min Rain = 0
KANS 140855Z 11010KT M01/M01 A3027 RMK A01 T10101014  RH  098%=      5-min Rain = 0
KANS 140900Z 11011KT M01/M02 A3027 RMK A01 T10101015  RH  098%=      5-min Rain = 0
KANS 140905Z 11010KT M01/M02 A3027 RMK A01 T10101015  RH  098%=      5-min Rain = 0
KANS 140910Z 11010KT M01/M02 A3027 RMK A01 T10111015  RH  098%=      5-min Rain = 0
KANS 140915Z 11010KT M01/M01 A3027 RMK A01 T10101014  RH  098%=      5-min Rain = 0
KANS 140920Z 11009KT M01/M01 A3027 RMK A01 T10101014  RH  098%=      5-min Rain = 0
KANS 140925Z 11010G15KT M01/M01 A3027 RMK A01 T10091014  RH  098%=      5-min Rain = 0
KANS 140930Z 11011G16KT M01/M02 A3027 RMK A01 T10101016  RH  096%=      5-min Rain = 0
KANS 140935Z 12012KT M01/M02 A3027 RMK A01 T10101017  RH  096%=      5-min Rain = 0
KANS 140940Z 12009KT M01/M02 A3027 RMK A01 T10091017  RH  095%=      5-min Rain = 0
KANS 140945Z 12008KT M01/M02 A3027 RMK A01 T10081016  RH  095%=      5-min Rain = 0
KANS 140950Z 11010KT M01/M02 A3027 RMK A01 T10081017  RH  094%=      5-min Rain = 0
KANS 140955Z 11010KT M01/M02 A3027 RMK A01 T10091019  RH  094%=      5-min Rain = 0
KANS 141000Z 11010KT M01/M02 A3027 RMK A01 T10101020  RH  093%=      5-min Rain = 0
KANS 141005Z 11009KT M01/M02 A3027 RMK A01 T10101020  RH  094%=      5-min Rain = 0
KANS 141010Z 11010KT M01/M02 A3027 RMK A01 T10101020  RH  094%=      5-min Rain = 0
KANS 141015Z 10008KT M01/M02 A3027 RMK A01 T10111020  RH  094%=      5-min Rain = 0
KANS 141020Z 11008KT M01/M02 A3027 RMK A01 T10111020  RH  094%=      5-min Rain = 0
KANS 141025Z 11010KT M01/M02 A3027 RMK A01 T10111020  RH  095%=      5-min Rain = 0
KANS 141030Z 10009KT M01/M02 A3027 RMK A01 T10121020  RH  095%=      5-min Rain = 0
KANS 141035Z 10010KT M01/M02 A3027 RMK A01 T10141021  RH  096%=      5-min Rain = 0
KANS 141040Z 10009KT M01/M02 A3027 RMK A01 T10141021  RH  096%=      5-min Rain = 0
KANS 141045Z 10008KT M01/M02 A3027 RMK A01 T10141020  RH  097%=      5-min Rain = 0
KANS 141050Z 10008KT M01/M02 A3027 RMK A01 T10141020  RH  097%=      5-min Rain = 0
KANS 141055Z 11009KT M01/M02 A3027 RMK A01 T10141019  RH  097%=      5-min Rain = 0
KANS 141100Z 11008G13KT M01/M02 A3027 RMK A01 T10141019  RH  097%=      5-min Rain = 0
KANS 141105Z 11009KT M01/M02 A3027 RMK A01 T10141019  RH  097%=      5-min Rain = 0
KANS 141110Z 11009KT M01/M02 A3027 RMK A01 T10141019  RH  098%=      5-min Rain = 0
KANS 141115Z 11008KT M01/M02 A3027 RMK A01 T10141018  RH  098%=      5-min Rain = 0
KANS 141120Z 11008KT M01/M02 A3027 RMK A01 T10141018  RH  098%=      5-min Rain = 0
KANS 141125Z 11009KT M01/M02 A3027 RMK A01 T10141018  RH  098%=      5-min Rain = 0
KANS 141130Z 11007KT M01/M02 A3027 RMK A01 T10141018  RH  098%=      5-min Rain = 0
KANS 141135Z 11008KT M01/M02 A3027 RMK A01 T10131017  RH  098%=      5-min Rain = 0
KANS 141140Z 11007KT M01/M02 A3027 RMK A01 T10131017  RH  098%=      5-min Rain = 0
KANS 141145Z 11008KT M01/M02 A3027 RMK A01 T10121016  RH  098%=      5-min Rain = 0
KANS 141150Z 11007KT M01/M02 A3027 RMK A01 T10121015  RH  098%=      5-min Rain = 0
KANS 141155Z 11007KT M01/M02 A3027 RMK A01 T10111015  RH  098%=      5-min Rain = 0
KANS 141200Z 11007KT M01/M01 A3027 RMK A01 T10101014  RH  098%=      5-min Rain = 0
KANS 141205Z 11007KT M01/M01 A3027 RMK A01 T10101014  RH  098%=      5-min Rain = 0
KANS 141210Z 12007KT M01/M01 A3027 RMK A01 T10101013  RH  098%=      5-min Rain = 0
KANS 141215Z 12008KT M01/M01 A3028 RMK A01 T10091013  RH  098%=      5-min Rain = 0
KANS 141220Z 12006KT M01/M01 A3028 RMK A01 T10091013  RH  098%=      5-min Rain = 0
KANS 141225Z 12006KT M01/M01 A3028 RMK A01 T10081012  RH  098%=      5-min Rain = 0
KANS 141230Z 12006KT M01/M01 A3028 RMK A01 T10081012  RH  098%=      5-min Rain = 0
KANS 141235Z 12007KT M01/M01 A3028 RMK A01 T10081011  RH  098%=      5-min Rain = 0
KANS 141240Z 10006KT M01/M01 A3029 RMK A01 T10081012  RH  098%=      5-min Rain = 0
KANS 141245Z 09006KT M01/M01 A3029 RMK A01 T10091014  RH  098%=      5-min Rain = 0
KANS 141250Z 09007KT M01/M02 A3029 RMK A01 T10111016  RH  097%=      5-min Rain = 0
KANS 141255Z 09006KT M01/M02 A3029 RMK A01 T10111016  RH  097%=      5-min Rain = 0
KANS 141300Z 09006KT M01/M02 A3029 RMK A01 T10121017  RH  097%=      5-min Rain = 0
KANS 141305Z 10006KT M01/M02 A3029 RMK A01 T10121018  RH  097%=      5-min Rain = 0
KANS 141310Z 10007KT M01/M02 A3029 RMK A01 T10131019  RH  096%=      5-min Rain = 0
KANS 141315Z 10008KT M01/M02 A3029 RMK A01 T10141020  RH  096%=      5-min Rain = 0
KANS 141320Z 10007KT M01/M02 A3029 RMK A01 T10141019  RH  097%=      5-min Rain = 0
KANS 141325Z 11007KT M01/M02 A3029 RMK A01 T10141019  RH  097%=      5-min Rain = 0
KANS 141330Z 10008KT M01/M02 A3029 RMK A01 T10131019  RH  097%=      5-min Rain = 0
KANS 141335Z 10006KT M01/M02 A303 RMK A01 T10131018  RH  097%=      5-min Rain = 0
KANS 141340Z 10006KT M01/M02 A303 RMK A01 T10131019  RH  097%=      5-min Rain = 0
KANS 141345Z 10007KT M01/M02 A3029 RMK A01 T10141020  RH  097%=      5-min Rain = 0
KANS 141350Z 11007KT M02/M02 A3029 RMK A01 T10151020  RH  097%=      5-min Rain = 0
KANS 141355Z 11007KT M02/M02 A3029 RMK A01 T10151020  RH  097%=      5-min Rain = 0
KANS 141400Z 10007KT M02/M02 A3029 RMK A01 T10151020  RH  097%=      5-min Rain = 0
KANS 141405Z 10006KT M02/M02 A3029 RMK A01 T10151019  RH  098%=      5-min Rain = 0
KANS 141410Z 10007KT M02/M02 A3029 RMK A01 T10151019  RH  098%=      5-min Rain = 0
KANS 141415Z 10007KT M02/M02 A3029 RMK A01 T10151020  RH  098%=      5-min Rain = 0
KANS 141420Z 10007KT M02/M02 A3029 RMK A01 T10151019  RH  098%=      5-min Rain = 0
KANS 141425Z 11007KT M01/M02 A3029 RMK A01 T10141018  RH  098%=      5-min Rain = 0
KANS 141430Z 10007KT M01/M02 A3029 RMK A01 T10141017  RH  098%=      5-min Rain = 0
KANS 141435Z 11008KT M01/M02 A3029 RMK A01 T10141018  RH  098%=      5-min Rain = 0
KANS 141440Z 11007KT M01/M02 A3029 RMK A01 T10131017  RH  098%=      5-min Rain = 0
KANS 141445Z 12007KT M01/M02 A3029 RMK A01 T10131016  RH  098%=      5-min Rain = 0
KANS 141450Z 11006KT M01/M02 A3029 RMK A01 T10121015  RH  098%=      5-min Rain = 0
KANS 141455Z 11007KT M01/M01 A303 RMK A01 T10111014  RH  098%=      5-min Rain = 0
KANS 141500Z 11007KT M01/M02 A303 RMK A01 T10111015  RH  098%=      5-min Rain = 0
KANS 141505Z 11007KT M01/M01 A303 RMK A01 T10111014  RH  098%=      5-min Rain = 0
KANS 141510Z 11008KT M01/M02 A303 RMK A01 T10121015  RH  098%=      5-min Rain = 0
KANS 141515Z 12007KT M01/M01 A303 RMK A01 T10101014  RH  099%=      5-min Rain = 0
KANS 141520Z 12006KT M01/M01 A303 RMK A01 T10091013  RH  099%=      5-min Rain = 0
KANS 141525Z 12007KT M01/M01 A303 RMK A01 T10091012  RH  099%=      5-min Rain = 0
KANS 141530Z 11007KT M01/M01 A303 RMK A01 T10091012  RH  099%=      5-min Rain = 0
KANS 141535Z 12007KT M01/M01 A3031 RMK A01 T10081012  RH  099%=      5-min Rain = 0
KANS 141540Z 12006KT M01/M01 A303 RMK A01 T10071010  RH  099%=      5-min Rain = 0
KANS 141545Z 13007KT M01/M01 A303 RMK A01 T10061009  RH  099%=      5-min Rain = 0
KANS 141550Z 12007KT M01/M01 A303 RMK A01 T10051009  RH  099%=      5-min Rain = 0
KANS 141555Z 12006KT M00/M01 A303 RMK A01 T10041007  RH  099%=      5-min Rain = 0
KANS 141600Z 12008KT M00/M01 A303 RMK A01 T10041008  RH  099%=      5-min Rain = 0
KANS 141605Z 12007KT M00/M01 A303 RMK A01 T10041007  RH  099%=      5-min Rain = 0
KANS 141610Z 13007KT M00/M01 A303 RMK A01 T10021006  RH  099%=      5-min Rain = 0
KANS 141615Z 13006KT M00/M00 A303 RMK A01 T10011004  RH  099%=      5-min Rain = 0
KANS 141620Z 12007KT M00/M01 A303 RMK A01 T10011005  RH  099%=      5-min Rain = 0
KANS 141625Z 12007KT M00/M01 A3031 RMK A01 T10021005  RH  099%=      5-min Rain = 0
KANS 141630Z 12008KT M00/M01 A303 RMK A01 T10021006  RH  098%=      5-min Rain = 0
KANS 141635Z 12007KT M00/M01 A303 RMK A01 T10021005  RH  099%=      5-min Rain = 0
KANS 141640Z 13007KT 00/00 A303 RMK A01 T00-000-4  RH  099%=      5-min Rain = 0
KANS 141645Z 14008KT 00/00 A303 RMK A01 T000000-3  RH  098%=      5-min Rain = 0
KANS 141650Z 13008KT 00/M00 A303 RMK A01 T00011003  RH  098%=      5-min Rain = 0
KANS 141655Z 14007KT 00/00 A303 RMK A01 T000400-0  RH  098%=      5-min Rain = 0
KANS 141700Z 14007KT 01/00 A303 RMK A01 T00060001  RH  098%=      5-min Rain = 0
KANS 141705Z 14008KT 01/00 A303 RMK A01 T00060000  RH  097%=      5-min Rain = 0
KANS 141710Z 15007KT 01/M00 A303 RMK A01 T00061001  RH  096%=      5-min Rain = 0
KANS 141715Z 15008KT 01/M00 A303 RMK A01 T00071001  RH  096%=      5-min Rain = 0
KANS 141720Z 15008KT 01/M00 A3029 RMK A01 T00081002  RH  094%=      5-min Rain = 0
KANS 141725Z 15007KT 01/M00 A3029 RMK A01 T00101001  RH  093%=      5-min Rain = 0
KANS 141730Z 15008KT 01/M00 A3029 RMK A01 T00111003  RH  092%=      5-min Rain = 0
KANS 141735Z 16007KT 01/M00 A3029 RMK A01 T00121003  RH  091%=      5-min Rain = 0
KANS 141740Z 15007KT 01/M00 A3029 RMK A01 T00121003  RH  091%=      5-min Rain = 0
KANS 141745Z 16009KT 01/M00 A3029 RMK A01 T00121003  RH  090%=      5-min Rain = 0
KANS 141750Z 15008KT 01/M00 A3029 RMK A01 T00131003  RH  090%=      5-min Rain = 0
KANS 141755Z 16006KT 02/M00 A3029 RMK A01 T00151002  RH  090%=      5-min Rain = 0
KANS 141800Z 16007KT 02/M00 A3029 RMK A01 T00151002  RH  089%=      5-min Rain = 0
KANS 141805Z 15008KT 02/M00 A3029 RMK A01 T00151002  RH  089%=      5-min Rain = 0
KANS 141810Z 15008KT 02/M00 A3029 RMK A01 T00151002  RH  090%=      5-min Rain = 0
KANS 141815Z 12007KT 01/M00 A3029 RMK A01 T00141002  RH  091%=      5-min Rain = 0
KANS 141820Z 13007KT 01/M00 A3028 RMK A01 T00131001  RH  091%=      5-min Rain = 0
KANS 141825Z 15007KT 01/M00 A3028 RMK A01 T00141001  RH  091%=      5-min Rain = 0
KANS 141830Z 14008KT 02/00 A3028 RMK A01 T001600-0  RH  090%=      5-min Rain = 0
KANS 141835Z 15006KT 02/00 A3028 RMK A01 T00200001  RH  089%=      5-min Rain = 0
KANS 141840Z 15008KT 02/00 A3027 RMK A01 T00210001  RH  087%=      5-min Rain = 0
KANS 141845Z 15008KT 02/00 A3027 RMK A01 T00230001  RH  087%=      5-min Rain = 0
KANS 141850Z 14007KT 03/00 A3027 RMK A01 T00250002  RH  086%=      5-min Rain = 0
KANS 141855Z 14008KT 03/00 A3026 RMK A01 T00260002  RH  085%=      5-min Rain = 0
KANS 141900Z 15008KT 03/00 A3026 RMK A01 T00280002  RH  084%=      5-min Rain = 0
KANS 141905Z 13007KT 03/00 A3026 RMK A01 T00300002  RH  083%=      5-min Rain = 0
KANS 141910Z 15007KT 03/00 A3026 RMK A01 T00320003  RH  082%=      5-min Rain = 0
KANS 141915Z 16007KT 03/00 A3026 RMK A01 T00340002  RH  081%=      5-min Rain = 0
KANS 141920Z 15006KT 03/00 A3025 RMK A01 T00340003  RH  081%=      5-min Rain = 0
KANS 141925Z 14009KT 04/00 A3025 RMK A01 T00360003  RH  080%=      5-min Rain = 0
KANS 141930Z 16007KT 04/00 A3025 RMK A01 T00370002  RH  079%=      5-min Rain = 0
KANS 141935Z 17008KT 04/00 A3025 RMK A01 T00370001  RH  078%=      5-min Rain = 0
KANS 141940Z 18006KT 04/00 A3024 RMK A01 T00380002  RH  078%=      5-min Rain = 0
KANS 141945Z 16007KT 04/00 A3024 RMK A01 T00430004  RH  077%=      5-min Rain = 0
KANS 141950Z 14007KT 05/00 A3024 RMK A01 T00450003  RH  075%=      5-min Rain = 0
KANS 141955Z 15009KT 05/00 A3023 RMK A01 T00450003  RH  075%=      5-min Rain = 0
KANS 142000Z 15006KT 05/01 A3023 RMK A01 T00480005  RH  075%=      5-min Rain = 0
KANS 142005Z 15004KT 05/01 A3022 RMK A01 T00530005  RH  072%=      5-min Rain = 0
KANS 142010Z 12005KT 06/01 A3022 RMK A01 T00580005  RH  070%=      5-min Rain = 0
KANS 142015Z 13007KT 06/00 A3022 RMK A01 T00590003  RH  068%=      5-min Rain = 0
KANS 142020Z 14008KT 06/00 A3021 RMK A01 T00600004  RH  068%=      5-min Rain = 0
KANS 142025Z 14006KT 06/00 A3021 RMK A01 T00590004  RH  069%=      5-min Rain = 0
KANS 142030Z 12006KT 06/01 A3021 RMK A01 T00590005  RH  069%=      5-min Rain = 0
KANS 142035Z 14008KT 07/01 A302 RMK A01 T00650005  RH  067%=      5-min Rain = 0
KANS 142040Z 13008KT 07/00 A302 RMK A01 T00650004  RH  066%=      5-min Rain = 0
KANS 142045Z 13007G13KT 07/01 A302 RMK A01 T00680005  RH  065%=      5-min Rain = 0
KANS 142050Z 13008KT 07/01 A3019 RMK A01 T00720005  RH  063%=      5-min Rain = 0
KANS 142055Z 14009KT 08/01 A3019 RMK A01 T00750006  RH  062%=      5-min Rain = 0
KANS 142100Z 14007KT 08/01 A3019 RMK A01 T00750005  RH  062%=      5-min Rain = 0
KANS 142105Z 14008KT 08/01 A3019 RMK A01 T00760006  RH  062%=      5-min Rain = 0
KANS 142110Z 12008KT 08/01 A3019 RMK A01 T00750005  RH  062%=      5-min Rain = 0
KANS 142115Z 14009G15KT 08/01 A3018 RMK A01 T00770007  RH  062%=      5-min Rain = 0
KANS 142120Z 14008KT 08/01 A3018 RMK A01 T00820008  RH  060%=      5-min Rain = 0
KANS 142125Z 14009KT 08/01 A3018 RMK A01 T00820008  RH  060%=      5-min Rain = 0
KANS 142130Z 13010KT 08/01 A3018 RMK A01 T00830008  RH  060%=      5-min Rain = 0
KANS 142135Z 13011KT 08/01 A3018 RMK A01 T00820008  RH  060%=      5-min Rain = 0
KANS 142140Z 14010KT 08/01 A3017 RMK A01 T00840008  RH  060%=      5-min Rain = 0
KANS 142145Z 13009KT 09/01 A3017 RMK A01 T00880010  RH  059%=      5-min Rain = 0
KANS 142150Z 12011KT 09/01 A3017 RMK A01 T00880009  RH  059%=      5-min Rain = 0
KANS 142155Z 14010G15KT 09/01 A3016 RMK A01 T00900010  RH  058%=      5-min Rain = 0
KANS 142200Z 14011KT 09/01 A3016 RMK A01 T00890009  RH  058%=      5-min Rain = 0
KANS 142205Z 14011KT 09/01 A3016 RMK A01 T00880009  RH  059%=      5-min Rain = 0
KANS 142210Z 14011G16KT 09/01 A3016 RMK A01 T00920012  RH  058%=      5-min Rain = 0
KANS 142215Z 14012KT 09/01 A3016 RMK A01 T00890010  RH  058%=      5-min Rain = 0
KANS 142220Z 13013G18KT 09/01 A3016 RMK A01 T00890011  RH  059%=      5-min Rain = 0
KANS 142225Z 14011KT 09/01 A3016 RMK A01 T00910011  RH  058%=      5-min Rain = 0
KANS 142230Z 13012G18KT 09/01 A3016 RMK A01 T00900012  RH  059%=      5-min Rain = 0
KANS 142235Z 14011KT 09/01 A3016 RMK A01 T00900012  RH  059%=      5-min Rain = 0
KANS 142240Z 13011KT 09/01 A3016 RMK A01 T00910014  RH  059%=      5-min Rain = 0
KANS 142245Z 14011KT 09/01 A3016 RMK A01 T00930014  RH  059%=      5-min Rain = 0
KANS 142250Z 13011G16KT 09/01 A3016 RMK A01 T00940014  RH  059%=      5-min Rain = 0
KANS 142255Z 13009KT 09/02 A3016 RMK A01 T00930015  RH  059%=      5-min Rain = 0
KANS 142300Z 13011KT 09/02 A3016 RMK A01 T00920016  RH  060%=      5-min Rain = 0
KANS 142305Z 15010KT 09/02 A3016 RMK A01 T00940016  RH  059%=      5-min Rain = 0
KANS 142310Z 13012G17KT 09/02 A3016 RMK A01 T00930016  RH  059%=      5-min Rain = 0
KANS 142315Z 15010KT 09/02 A3016 RMK A01 T00940017  RH  060%=      5-min Rain = 0
KANS 142320Z 13010KT 10/02 A3015 RMK A01 T00950018  RH  059%=      5-min Rain = 0
KANS 142325Z 13011KT 09/02 A3015 RMK A01 T00930018  RH  060%=      5-min Rain = 0
KANS 142330Z 13011KT 09/02 A3015 RMK A01 T00930018  RH  060%=      5-min Rain = 0
KANS 142335Z 13013KT 09/02 A3015 RMK A01 T00930018  RH  060%=      5-min Rain = 0
KANS 142340Z 13011KT 09/02 A3014 RMK A01 T00910018  RH  061%=      5-min Rain = 0
KANS 142345Z 13010G15KT 09/02 A3014 RMK A01 T00930018  RH  061%=      5-min Rain = 0
KANS 142350Z 13011KT 09/02 A3014 RMK A01 T00930018  RH  061%=      5-min Rain = 0
KANS 142355Z 13011KT 09/02 A3014 RMK A01 T00910018  RH  061%=      5-min Rain = 0
KANS 150000Z 13011KT 09/02 A3014 RMK A01 T00900018  RH  061%=      5-min Rain = 0
KANS 150005Z 13010KT 09/02 A3014 RMK A01 T00890019  RH  062%=      5-min Rain = 0
KANS 150010Z 13011G16KT 09/02 A3014 RMK A01 T00890019  RH  062%=      5-min Rain = 0
KANS 150015Z 13009KT 09/02 A3014 RMK A01 T00880019  RH  063%=      5-min Rain = 0
KANS 150020Z 13009KT 09/02 A3014 RMK A01 T00860019  RH  064%=      5-min Rain = 0
KANS 150025Z 13008KT 08/02 A3014 RMK A01 T00840019  RH  064%=      5-min Rain = 0
KANS 150030Z 13006KT 08/02 A3014 RMK A01 T00830018  RH  065%=      5-min Rain = 0
KANS 150035Z 13007KT 08/02 A3014 RMK A01 T00810018  RH  066%=      5-min Rain = 0
KANS 150040Z 13007KT 08/02 A3015 RMK A01 T00790018  RH  066%=      5-min Rain = 0
KANS 150045Z 13007KT 08/02 A3015 RMK A01 T00760017  RH  067%=      5-min Rain = 0
KANS 150050Z 13007KT 07/02 A3015 RMK A01 T00740017  RH  068%=      5-min Rain = 0
KANS 150055Z 14007KT 07/02 A3014 RMK A01 T00730017  RH  069%=      5-min Rain = 0
KANS 150100Z 14007KT 07/02 A3015 RMK A01 T00700017  RH  070%=      5-min Rain = 0
KANS 150105Z 14008KT 07/02 A3014 RMK A01 T00690016  RH  070%=      5-min Rain = 0
KANS 150110Z 14008KT 07/02 A3014 RMK A01 T00680016  RH  070%=      5-min Rain = 0
KANS 150115Z 14008KT 07/02 A3015 RMK A01 T00670016  RH  071%=      5-min Rain = 0
KANS 150120Z 14008KT 07/02 A3015 RMK A01 T00650015  RH  071%=      5-min Rain = 0
KANS 150125Z 14009KT 06/02 A3015 RMK A01 T00640015  RH  072%=      5-min Rain = 0
KANS 150130Z 14009KT 06/02 A3015 RMK A01 T00640016  RH  073%=      5-min Rain = 0
KANS 150135Z 14009KT 07/02 A3015 RMK A01 T00650016  RH  072%=      5-min Rain = 0
KANS 150140Z 14009KT 07/02 A3015 RMK A01 T00650016  RH  072%=      5-min Rain = 0
KANS 150145Z 14010KT 07/02 A3015 RMK A01 T00650016  RH  072%=      5-min Rain = 0
KANS 150150Z 14010KT 06/02 A3015 RMK A01 T00640016  RH  072%=      5-min Rain = 0
KANS 150155Z 15010KT 06/02 A3015 RMK A01 T00630015  RH  073%=      5-min Rain = 0
KANS 150200Z 15010KT 06/02 A3015 RMK A01 T00620015  RH  073%=      5-min Rain = 0
KANS 150205Z 15010KT 06/02 A3015 RMK A01 T00610015  RH  074%=      5-min Rain = 0
KANS 150210Z 15010KT 06/02 A3015 RMK A01 T00600015  RH  074%=      5-min Rain = 0
KANS 150215Z 15009KT 06/02 A3015 RMK A01 T00600015  RH  074%=      5-min Rain = 0
KANS 150220Z 15009KT 06/02 A3015 RMK A01 T00590015  RH  075%=      5-min Rain = 0
KANS 150225Z 15009KT 06/02 A3015 RMK A01 T00580015  RH  075%=      5-min Rain = 0
KANS 150230Z 15009KT 06/02 A3015 RMK A01 T00560015  RH  076%=      5-min Rain = 0
KANS 150235Z 15008KT 06/02 A3016 RMK A01 T00550015  RH  076%=      5-min Rain = 0
KANS 150240Z 15008KT 05/02 A3016 RMK A01 T00540015  RH  077%=      5-min Rain = 0
KANS 150245Z 16009KT 05/02 A3016 RMK A01 T00530015  RH  077%=      5-min Rain = 0
KANS 150250Z 16009KT 05/02 A3016 RMK A01 T00520015  RH  078%=      5-min Rain = 0
KANS 150255Z 15010KT 05/02 A3016 RMK A01 T00520015  RH  078%=      5-min Rain = 0
KANS 150300Z 15011KT 05/02 A3016 RMK A01 T00520015  RH  079%=      5-min Rain = 0
KANS 150305Z 15011KT 05/02 A3016 RMK A01 T00530016  RH  078%=      5-min Rain = 0
KANS 150310Z 16011KT 05/02 A3016 RMK A01 T00530016  RH  078%=      5-min Rain = 0
KANS 150315Z 15011G16KT 05/02 A3016 RMK A01 T00530017  RH  079%=      5-min Rain = 0
KANS 150320Z 15011KT 05/02 A3016 RMK A01 T00530017  RH  079%=      5-min Rain = 0
KANS 150325Z 15010KT 05/02 A3016 RMK A01 T00530018  RH  079%=      5-min Rain = 0
KANS 150330Z 15010KT 05/02 A3016 RMK A01 T00520018  RH  080%=      5-min Rain = 0
KANS 150335Z 15010KT 05/02 A3016 RMK A01 T00520018  RH  080%=      5-min Rain = 0
KANS 150340Z 16010KT 05/02 A3016 RMK A01 T00520019  RH  080%=      5-min Rain = 0
KANS 150345Z 16009KT 05/02 A3016 RMK A01 T00510019  RH  081%=      5-min Rain = 0
KANS 150350Z 16008KT 05/02 A3016 RMK A01 T00510019  RH  081%=      5-min Rain = 0
KANS 150355Z 16008KT 05/02 A3016 RMK A01 T00510019  RH  081%=      5-min Rain = 0
KANS 150400Z 16008KT 05/02 A3016 RMK A01 T00510019  RH  081%=      5-min Rain = 0
KANS 150405Z 16009KT 05/02 A3016 RMK A01 T00500019  RH  082%=      5-min Rain = 0
KANS 150410Z 16008KT 05/02 A3016 RMK A01 T00490019  RH  082%=      5-min Rain = 0
KANS 150415Z 16008KT 05/02 A3016 RMK A01 T00480018  RH  083%=      5-min Rain = 0
KANS 150420Z 16009KT 05/02 A3016 RMK A01 T00460018  RH  083%=      5-min Rain = 0
KANS 150425Z 16008KT 05/02 A3016 RMK A01 T00450018  RH  084%=      5-min Rain = 0
KANS 150430Z 17007KT 04/02 A3016 RMK A01 T00440018  RH  084%=      5-min Rain = 0
KANS 150435Z 17008KT 04/02 A3016 RMK A01 T00430017  RH  085%=      5-min Rain = 0
KANS 150440Z 17007KT 04/02 A3016 RMK A01 T00420017  RH  085%=      5-min Rain = 0
KANS 150445Z 17007KT 04/02 A3016 RMK A01 T00400016  RH  086%=      5-min Rain = 0
KANS 150450Z 17007KT 04/02 A3016 RMK A01 T00390016  RH  086%=      5-min Rain = 0
KANS 150455Z 18007KT 04/02 A3016 RMK A01 T00370015  RH  087%=      5-min Rain = 0
KANS 150500Z 18006KT 04/02 A3016 RMK A01 T00350015  RH  088%=      5-min Rain = 0
KANS 150505Z 18006KT 03/01 A3016 RMK A01 T00340014  RH  088%=      5-min Rain = 0
KANS 150510Z 18006KT 03/01 A3015 RMK A01 T00320013  RH  089%=      5-min Rain = 0
KANS 150515Z 18006KT 03/01 A3015 RMK A01 T00300013  RH  089%=      5-min Rain = 0
KANS 150520Z 18007KT 03/01 A3015 RMK A01 T00290012  RH  090%=      5-min Rain = 0
KANS 150525Z 18008KT 03/01 A3015 RMK A01 T00290013  RH  090%=      5-min Rain = 0
KANS 150530Z 18007KT 03/01 A3015 RMK A01 T00290013  RH  090%=      5-min Rain = 0
KANS 150535Z 18007KT 03/01 A3015 RMK A01 T00300014  RH  090%=      5-min Rain = 0
KANS 150540Z 18008KT 03/01 A3015 RMK A01 T00310014  RH  090%=      5-min Rain = 0
KANS 150545Z 18008KT 03/01 A3014 RMK A01 T00310014  RH  090%=      5-min Rain = 0
KANS 150550Z 18008KT 03/01 A3014 RMK A01 T00310014  RH  090%=      5-min Rain = 0
KANS 150555Z 17008KT 03/01 A3014 RMK A01 T00310014  RH  090%=      5-min Rain = 0

Page generated in 0.0432 seconds.